Time;durP1;ratioP1;P1;durP2;ratioP2;P2;SDS_P1;SDS_P2;PMS_P1;PMS_P2;Temp;Humidity;BMP_temperature;BMP_pressure;BME280_temperature;BME280_humidity;BME280_pressure;Samples;Min_cycle;Max_cycle;Signal;HPM_P1;HPM_P2
2022/06/08 00:00:38;;;;;;;6.25;5.65;;;17.10;99.90;;;;;;5109126;28;20227;-51
2022/06/08 00:03:09;;;;;;;7.65;6.95;;;17.10;99.90;;;;;;5109323;28;20250;-51
2022/06/08 00:05:37;;;;;;;7.05;6.40;;;17.10;99.90;;;;;;5109421;28;20249;-51
2022/06/08 00:08:05;;;;;;;7.05;6.45;;;17.00;99.90;;;;;;5109232;28;20243;-51
2022/06/08 00:10:33;;;;;;;8.02;5.20;;;17.00;99.90;;;;;;5108051;28;20230;-51
2022/06/08 00:13:03;;;;;;;6.53;5.93;;;17.10;99.90;;;;;;5102358;28;20208;-51
2022/06/08 00:15:31;;;;;;;6.15;5.65;;;17.00;99.90;;;;;;5096306;28;20671;-51
2022/06/08 00:18:00;;;;;;;5.80;5.30;;;17.00;99.90;;;;;;5101079;28;20714;-51
2022/06/08 00:20:29;;;;;;;5.28;4.78;;;17.10;99.90;;;;;;5112669;28;20212;-51
2022/06/08 00:22:57;;;;;;;5.65;4.97;;;17.10;99.90;;;;;;5099632;28;20228;-51
2022/06/08 00:25:25;;;;;;;7.18;6.47;;;17.10;99.90;;;;;;5113206;28;20761;-51
2022/06/08 00:27:53;;;;;;;8.65;6.05;;;17.00;99.90;;;;;;5112616;28;20695;-50
2022/06/08 00:30:23;;;;;;;5.88;5.32;;;17.00;99.90;;;;;;5113560;28;20621;-50
2022/06/08 00:32:51;;;;;;;5.80;5.20;;;17.00;99.90;;;;;;5113180;28;20635;-51
2022/06/08 00:35:19;;;;;;;5.75;5.25;;;17.00;99.90;;;;;;5113029;28;20259;-51
2022/06/08 00:37:47;;;;;;;6.18;5.53;;;17.00;99.90;;;;;;5112740;28;20254;-51
2022/06/08 00:40:19;;;;;;;7.43;5.82;;;17.00;99.90;;;;;;5114269;28;20246;-51
2022/06/08 00:42:48;;;;;;;5.65;5.15;;;17.00;99.90;;;;;;5119587;28;20268;-51
2022/06/08 00:45:20;;;;;;;5.82;4.57;;;17.10;99.90;;;;;;5118864;28;20356;-51
2022/06/08 00:47:54;;;;;;;7.85;5.13;;;17.00;99.90;;;;;;5105773;28;20200;-51
2022/06/08 00:50:25;;;;;;;7.28;5.05;;;17.10;99.90;;;;;;5113295;28;20242;-51
2022/06/08 00:52:54;;;;;;;6.15;4.95;;;17.00;99.90;;;;;;5112687;28;20246;-51
2022/06/08 00:55:27;;;;;;;5.35;4.60;;;17.10;99.90;;;;;;5113261;28;20269;-51
2022/06/08 00:57:59;;;;;;;6.40;5.20;;;17.00;99.90;;;;;;5112532;28;20207;-51
2022/06/08 01:00:30;;;;;;;5.57;5.07;;;17.00;99.90;;;;;;5113064;28;20238;-51
2022/06/08 01:03:00;;;;;;;5.80;5.32;;;17.00;99.90;;;;;;5112310;28;20280;-51
2022/06/08 01:05:31;;;;;;;5.75;5.25;;;17.10;99.90;;;;;;5112457;28;20310;-51
2022/06/08 01:08:04;;;;;;;6.97;4.95;;;17.00;99.90;;;;;;5104888;28;20208;-52
2022/06/08 01:10:44;;;;;;;5.68;5.07;;;17.00;99.90;;;;;;5086561;28;20207;-51
2022/06/08 01:13:12;;;;;;;5.85;5.25;;;16.90;99.90;;;;;;5101115;28;20211;-51
2022/06/08 01:15:42;;;;;;;6.13;4.82;;;16.80;99.90;;;;;;5094474;28;20220;-51
2022/06/08 01:18:12;;;;;;;6.35;5.28;;;16.80;99.90;;;;;;5101698;28;20237;-51
2022/06/08 01:20:45;;;;;;;8.15;6.00;;;16.70;99.90;;;;;;5112504;28;20658;-51
2022/06/08 01:23:15;;;;;;;7.68;6.97;;;16.70;99.90;;;;;;5103495;28;20200;-51
2022/06/08 01:25:59;;;;;;;6.70;6.10;;;16.70;99.90;;;;;;5111594;28;20696;-51
2022/06/08 01:28:37;;;;;;;6.70;5.80;;;16.60;99.90;;;;;;5102046;28;20247;-51
2022/06/08 01:31:13;;;;;;;6.85;6.25;;;16.60;99.90;;;;;;5109950;28;20294;-51
2022/06/08 01:33:57;;;;;;;8.50;6.57;;;16.60;99.90;;;;;;5112855;28;20281;-51
2022/06/08 01:36:40;;;;;;;8.57;7.68;;;16.50;99.90;;;;;;5112102;28;20226;-51
2022/06/08 01:39:15;;;;;;;6.68;6.07;;;16.30;99.90;;;;;;5112257;28;20268;-51
2022/06/08 01:42:03;;;;;;;6.95;6.25;;;16.20;99.90;;;;;;5111648;28;20207;-51
2022/06/08 01:45:28;;;;;;;7.22;6.63;;;16.20;99.90;;;;;;5112202;28;20267;-51
2022/06/08 01:47:48;;;;;;;9.18;8.25;;;16.20;99.90;;;;;;5104374;28;20277;-51
2022/06/08 01:50:43;;;;;;;7.80;6.95;;;16.20;99.90;;;;;;5101624;28;20192;-51
2022/06/08 01:53:24;;;;;;;7.22;6.63;;;16.30;99.90;;;;;;5111657;28;20253;-51
2022/06/08 01:55:58;;;;;;;9.30;7.63;;;16.30;99.90;;;;;;5111943;28;20595;-51
2022/06/08 01:58:36;;;;;;;7.22;6.53;;;16.30;99.90;;;;;;5111626;28;20903;-51
2022/06/08 02:01:11;;;;;;;7.18;6.47;;;16.40;99.90;;;;;;5108131;28;20243;-51
2022/06/08 02:03:46;;;;;;;7.28;6.65;;;16.30;99.90;;;;;;5089935;28;20299;-51
2022/06/08 02:06:22;;;;;;;7.47;6.78;;;16.40;99.90;;;;;;5091326;28;20231;-51
2022/06/08 02:08:56;;;;;;;7.63;6.82;;;16.40;99.90;;;;;;5091030;28;20243;-51
2022/06/08 02:11:32;;;;;;;7.80;6.35;;;16.30;99.90;;;;;;5077473;28;20204;-51
2022/06/08 02:14:04;;;;;;;6.60;6.10;;;16.30;99.90;;;;;;5077320;28;20261;-52
2022/06/08 02:16:39;;;;;;;7.28;6.68;;;16.30;99.90;;;;;;5091026;28;20196;-51
2022/06/08 02:19:12;;;;;;;6.47;5.85;;;16.30;99.90;;;;;;5084384;28;20255;-50
2022/06/08 02:21:44;;;;;;;7.18;6.22;;;16.40;99.90;;;;;;5083397;28;20563;-51
2022/06/08 02:24:16;;;;;;;6.38;5.88;;;16.40;99.90;;;;;;5076244;28;20244;-51
2022/06/08 02:26:52;;;;;;;6.97;6.18;;;16.40;99.90;;;;;;5090616;28;20320;-52
2022/06/08 02:29:23;;;;;;;8.15;7.10;;;16.50;99.90;;;;;;5090810;28;20200;-51
2022/06/08 02:31:57;;;;;;;9.02;7.00;;;16.40;99.90;;;;;;5090978;28;20307;-52
2022/06/08 02:34:31;;;;;;;7.15;6.50;;;16.40;99.90;;;;;;5090651;28;20278;-51
2022/06/08 02:37:09;;;;;;;8.85;6.60;;;16.40;99.90;;;;;;5076651;28;20213;-52
2022/06/08 02:39:41;;;;;;;7.68;6.05;;;16.40;99.90;;;;;;5077014;28;20200;-51
2022/06/08 02:42:14;;;;;;;7.40;6.65;;;16.30;99.90;;;;;;5090541;28;20727;-52
2022/06/08 02:44:44;;;;;;;6.82;6.13;;;16.30;99.90;;;;;;5083070;28;20258;-51
2022/06/08 02:47:17;;;;;;;7.68;6.70;;;16.30;99.90;;;;;;5096708;28;20914;-51
2022/06/08 02:49:45;;;;;;;6.50;5.90;;;16.30;99.90;;;;;;5078774;28;20283;-51
2022/06/08 02:52:19;;;;;;;6.90;6.22;;;16.30;99.90;;;;;;5089885;28;20672;-50
2022/06/08 02:54:48;;;;;;;5.60;5.07;;;16.30;99.90;;;;;;5089742;28;20224;-51
2022/06/08 02:57:37;;;;;;;7.07;6.47;;;16.30;99.90;;;;;;5090438;28;20200;-51
2022/06/08 03:00:11;;;;;;;7.70;6.93;;;16.40;99.90;;;;;;5090041;28;20208;-51
2022/06/08 03:02:45;;;;;;;7.13;6.50;;;16.30;99.90;;;;;;5089793;28;20611;-51
2022/06/08 03:05:20;;;;;;;7.38;6.75;;;16.20;99.90;;;;;;5090008;28;20640;-51
2022/06/08 03:07:53;;;;;;;7.97;7.22;;;16.20;99.90;;;;;;5088825;28;20292;-51
2022/06/08 03:10:22;;;;;;;7.53;6.82;;;16.10;99.90;;;;;;5083394;28;20209;-51
2022/06/08 03:13:05;;;;;;;7.47;6.78;;;16.10;99.90;;;;;;5083101;28;20627;-51
2022/06/08 03:15:35;;;;;;;8.15;7.43;;;16.00;99.90;;;;;;5091507;28;20252;-51
2022/06/08 03:18:03;;;;;;;8.52;7.68;;;15.90;99.90;;;;;;5109853;28;20208;-52
2022/06/08 03:20:31;;;;;;;8.10;7.30;;;15.80;99.90;;;;;;5109944;28;20273;-51
2022/06/08 03:22:59;;;;;;;9.45;7.85;;;15.80;99.90;;;;;;5100599;28;20264;-51
2022/06/08 03:25:27;;;;;;;9.68;8.77;;;15.70;99.90;;;;;;5095758;28;20273;-51
2022/06/08 03:27:57;;;;;;;10.98;8.27;;;15.60;99.90;;;;;;5093476;28;20223;-51
2022/06/08 03:30:25;;;;;;;9.05;7.50;;;15.50;99.90;;;;;;5109519;28;20234;-51
2022/06/08 03:32:53;;;;;;;9.30;8.35;;;15.50;99.90;;;;;;5103658;28;20237;-51
2022/06/08 03:35:21;;;;;;;9.77;8.55;;;15.50;99.90;;;;;;5109568;28;20223;-51
2022/06/08 03:37:49;;;;;;;9.05;8.15;;;15.50;99.90;;;;;;5109898;28;20211;-51
2022/06/08 03:40:18;;;;;;;9.75;8.82;;;15.60;99.90;;;;;;5109910;28;20742;-51
2022/06/08 03:42:46;;;;;;;11.27;10.23;;;15.70;99.90;;;;;;5109993;28;20208;-51
2022/06/08 03:45:15;;;;;;;9.52;8.55;;;15.60;99.90;;;;;;5109814;28;20259;-51
2022/06/08 03:47:48;;;;;;;10.10;9.13;;;15.60;99.90;;;;;;5102363;28;20220;-51
2022/06/08 03:50:19;;;;;;;12.32;10.63;;;15.60;99.90;;;;;;5113431;28;20241;-51
2022/06/08 03:52:52;;;;;;;11.63;9.95;;;15.70;99.90;;;;;;5113887;28;20252;-51
2022/06/08 03:55:21;;;;;;;12.85;9.77;;;15.70;99.90;;;;;;5114410;28;20649;-51
2022/06/08 03:57:51;;;;;;;11.70;10.50;;;15.70;99.90;;;;;;5099737;28;20732;-51
2022/06/08 04:00:22;;;;;;;11.73;10.50;;;15.80;99.90;;;;;;5114048;28;20257;-51
2022/06/08 04:02:51;;;;;;;11.48;10.38;;;15.70;99.90;;;;;;5113372;28;20759;-51
2022/06/08 04:05:24;;;;;;;9.68;8.75;;;15.70;99.90;;;;;;5100424;28;20234;-52
2022/06/08 04:07:52;;;;;;;10.40;9.40;;;15.70;99.90;;;;;;5115290;28;20227;-51
2022/06/08 04:10:20;;;;;;;9.23;8.43;;;15.80;99.90;;;;;;5102352;28;20259;-51
2022/06/08 04:12:48;;;;;;;8.50;7.78;;;15.80;99.90;;;;;;5088055;28;20708;-50
2022/06/08 04:18:00;;;;;;;9.48;8.57;;;15.80;99.90;;;;;;5092661;28;20283;-51
2022/06/08 04:20:29;;;;;;;10.00;9.10;;;15.80;99.90;;;;;;5093412;28;20204;-51
2022/06/08 04:22:57;;;;;;;8.90;8.15;;;15.80;99.90;;;;;;5093194;28;20235;-51
2022/06/08 04:25:25;;;;;;;8.88;7.93;;;15.70;99.90;;;;;;5092806;28;20574;-51
2022/06/08 04:27:53;;;;;;;8.90;8.13;;;15.80;99.90;;;;;;5093100;28;20311;-51
2022/06/08 04:30:22;;;;;;;10.57;9.45;;;15.90;99.90;;;;;;5093166;28;20208;-51
2022/06/08 04:32:50;;;;;;;10.40;9.43;;;15.90;99.90;;;;;;5093013;28;20243;-50
2022/06/08 04:35:21;;;;;;;9.82;8.98;;;15.90;99.90;;;;;;5092759;28;20705;-51
2022/06/08 04:37:49;;;;;;;9.85;8.85;;;15.90;99.90;;;;;;5092300;28;20650;-50
2022/06/08 04:40:17;;;;;;;8.50;7.80;;;15.90;99.90;;;;;;5093019;28;20212;-51
2022/06/08 04:42:45;;;;;;;9.65;8.85;;;15.90;99.90;;;;;;5092804;28;20299;-51
2022/06/08 04:45:13;;;;;;;9.75;8.30;;;16.00;99.90;;;;;;5092808;28;20789;-51
2022/06/08 04:47:42;;;;;;;10.52;9.27;;;16.00;99.90;;;;;;5092319;28;20692;-50
2022/06/08 04:50:11;;;;;;;10.52;9.52;;;16.00;99.90;;;;;;5092883;28;20261;-51
2022/06/08 04:52:41;;;;;;;10.13;9.13;;;16.00;99.90;;;;;;5092118;28;20242;-51
2022/06/08 04:55:12;;;;;;;9.55;8.65;;;16.10;99.90;;;;;;5092628;28;20217;-51
2022/06/08 04:57:40;;;;;;;12.30;11.05;;;16.00;99.90;;;;;;5092827;28;20238;-51
2022/06/08 05:00:10;;;;;;;12.00;10.85;;;15.90;99.90;;;;;;5091590;28;20212;-51
2022/06/08 05:02:44;;;;;;;10.50;9.50;;;16.00;99.90;;;;;;5092309;28;20204;-51
2022/06/08 05:05:15;;;;;;;11.52;10.38;;;16.10;99.90;;;;;;5092254;28;20338;-51
2022/06/08 05:07:44;;;;;;;10.15;9.15;;;16.10;99.90;;;;;;5092149;28;20342;-51
2022/06/08 05:10:13;;;;;;;10.43;9.52;;;16.10;99.90;;;;;;5089497;28;20651;-51
2022/06/08 05:12:41;;;;;;;11.40;10.40;;;16.10;99.90;;;;;;5084051;28;20265;-51
2022/06/08 05:15:13;;;;;;;11.15;10.15;;;16.10;99.90;;;;;;5092075;28;20220;-52
2022/06/08 05:17:41;;;;;;;11.00;9.88;;;16.10;99.90;;;;;;5091462;28;20200;-51
2022/06/08 05:20:10;;;;;;;9.88;8.98;;;16.10;99.90;;;;;;5091878;28;20228;-51
2022/06/08 05:22:39;;;;;;;10.00;9.18;;;16.10;99.90;;;;;;5086377;28;20623;-51
2022/06/08 05:25:12;;;;;;;12.55;11.35;;;16.20;99.90;;;;;;5080519;28;20260;-51
2022/06/08 05:27:40;;;;;;;12.70;10.68;;;16.10;99.90;;;;;;5086424;28;20252;-52
2022/06/08 05:30:10;;;;;;;11.15;10.05;;;16.20;99.90;;;;;;5091402;28;20253;-51
2022/06/08 05:32:38;;;;;;;11.43;10.27;;;16.20;99.90;;;;;;5085906;28;20204;-51
2022/06/08 05:35:07;;;;;;;11.20;10.20;;;16.20;99.90;;;;;;5085859;28;20285;-51
2022/06/08 05:37:35;;;;;;;9.40;8.60;;;16.20;99.90;;;;;;5089754;28;20247;-51
2022/06/08 05:40:05;;;;;;;9.57;8.65;;;16.20;99.90;;;;;;5089932;28;20623;-52
2022/06/08 05:42:34;;;;;;;9.30;8.38;;;16.20;99.90;;;;;;5089866;28;20204;-51
2022/06/08 05:45:04;;;;;;;9.57;8.43;;;16.30;99.90;;;;;;5091364;28;20231;-52
2022/06/08 05:47:32;;;;;;;7.95;7.15;;;16.30;99.90;;;;;;5091505;28;20274;-51
2022/06/08 05:50:00;;;;;;;7.93;7.22;;;16.30;99.90;;;;;;5091111;28;20262;-51
2022/06/08 05:52:29;;;;;;;8.13;6.72;;;16.40;99.90;;;;;;5090625;28;20550;-51
2022/06/08 05:54:59;;;;;;;7.30;6.60;;;16.30;99.90;;;;;;5090891;28;20704;-51
2022/06/08 05:57:27;;;;;;;7.65;6.93;;;16.40;99.90;;;;;;5091320;28;20209;-51
2022/06/08 05:59:56;;;;;;;7.18;6.47;;;16.40;99.90;;;;;;5091316;28;20312;-51
2022/06/08 06:02:24;;;;;;;7.00;6.40;;;16.60;99.90;;;;;;5091077;28;20233;-51
2022/06/08 06:04:52;;;;;;;7.45;6.03;;;16.60;99.90;;;;;;5091282;28;20301;-51
2022/06/08 06:07:21;;;;;;;8.07;6.18;;;16.70;99.90;;;;;;5076774;28;20661;-51
2022/06/08 06:09:49;;;;;;;6.65;5.82;;;16.80;99.90;;;;;;5077375;28;20200;-51
2022/06/08 06:12:20;;;;;;;7.47;5.40;;;16.80;99.90;;;;;;5078877;28;20230;-51
2022/06/08 06:14:49;;;;;;;5.63;5.07;;;16.90;99.90;;;;;;5091049;28;20231;-51
2022/06/08 06:17:18;;;;;;;5.90;5.32;;;16.80;99.90;;;;;;5090697;28;20242;-52
2022/06/08 06:19:47;;;;;;;6.40;4.63;;;16.80;99.90;;;;;;5090779;28;20250;-52
2022/06/08 06:22:15;;;;;;;5.25;4.57;;;16.90;99.90;;;;;;5090127;28;20208;-51
2022/06/08 06:24:43;;;;;;;7.30;4.15;;;17.00;99.90;;;;;;5090723;28;20224;-52
2022/06/08 06:27:11;;;;;;;4.15;3.75;;;17.10;99.90;;;;;;5090623;28;20200;-51
2022/06/08 06:29:39;;;;;;;4.43;3.88;;;17.20;99.90;;;;;;5090556;28;20327;-51
2022/06/08 06:32:12;;;;;;;5.60;3.70;;;17.20;99.90;;;;;;5090249;28;20245;-51
2022/06/08 06:34:43;;;;;;;3.85;3.38;;;17.30;99.90;;;;;;5108671;28;20263;-52
2022/06/08 06:37:11;;;;;;;4.38;3.95;;;17.40;99.90;;;;;;5110694;28;20219;-51
2022/06/08 06:39:39;;;;;;;4.93;3.58;;;17.50;99.90;;;;;;5110884;28;20227;-52
2022/06/08 06:42:15;;;;;;;3.90;3.50;;;17.50;99.90;;;;;;5110651;28;20203;-51
2022/06/08 06:44:43;;;;;;;6.13;3.63;;;17.50;99.90;;;;;;5110109;28;20223;-52
2022/06/08 06:47:12;;;;;;;4.10;3.47;;;17.60;99.90;;;;;;5101031;28;20236;-51
2022/06/08 06:49:41;;;;;;;3.60;3.30;;;17.60;99.90;;;;;;5110356;28;20275;-52
2022/06/08 06:52:10;;;;;;;3.67;3.30;;;17.80;99.90;;;;;;5110390;28;20581;-51
2022/06/08 06:54:38;;;;;;;5.13;3.53;;;17.80;99.90;;;;;;5081783;28;20219;-52
2022/06/08 06:57:07;;;;;;;4.10;3.60;;;17.90;99.90;;;;;;5110146;28;20215;-52
2022/06/08 06:59:35;;;;;;;4.03;3.63;;;18.10;99.90;;;;;;5110457;28;20257;-51
2022/06/08 07:02:03;;;;;;;4.15;3.47;;;18.30;99.90;;;;;;5109803;28;20639;-52
2022/06/08 07:04:31;;;;;;;4.50;3.78;;;18.70;99.90;;;;;;5110237;28;20273;-51
2022/06/08 07:07:01;;;;;;;3.90;3.60;;;18.70;99.90;;;;;;5109972;28;20261;-51
2022/06/08 07:09:29;;;;;;;3.97;3.60;;;18.80;99.90;;;;;;5110239;28;20246;-51
2022/06/08 07:11:58;;;;;;;3.85;3.28;;;19.20;99.90;;;;;;5104303;28;20216;-52
2022/06/08 07:14:26;;;;;;;4.10;3.20;;;19.40;99.90;;;;;;5090011;28;20224;-52
2022/06/08 07:16:55;;;;;;;3.72;3.40;;;19.60;99.90;;;;;;5089631;28;20258;-51
2022/06/08 07:19:23;;;;;;;3.65;3.20;;;19.60;99.90;;;;;;5097441;28;20626;-52
2022/06/08 07:21:51;;;;;;;3.38;3.08;;;20.10;99.90;;;;;;5103670;28;20590;-52
2022/06/08 07:24:23;;;;;;;3.05;2.80;;;20.30;99.90;;;;;;5107088;28;20233;-52
2022/06/08 07:26:52;;;;;;;3.20;2.90;;;20.90;99.90;;;;;;5099898;28;20247;-52
2022/06/08 07:29:20;;;;;;;3.45;3.08;;;21.40;99.90;;;;;;5106908;28;20273;-52
2022/06/08 07:31:48;;;;;;;3.47;3.17;;;21.80;99.90;;;;;;5110203;28;20699;-52
2022/06/08 07:34:17;;;;;;;3.70;3.38;;;21.90;99.90;;;;;;5116414;28;20260;-52
2022/06/08 07:36:45;;;;;;;3.80;3.50;;;22.50;99.90;;;;;;5116599;28;20233;-51
2022/06/08 07:39:15;;;;;;;3.90;3.53;;;22.50;99.90;;;;;;5111099;28;20200;-52
2022/06/08 07:41:46;;;;;;;4.05;3.10;;;22.80;99.90;;;;;;5110479;28;20252;-52
2022/06/08 07:44:15;;;;;;;3.72;3.42;;;23.10;99.90;;;;;;5110141;28;20252;-52
2022/06/08 07:46:44;;;;;;;4.00;3.47;;;23.60;99.90;;;;;;5103973;28;20254;-52
2022/06/08 07:52:00;;;;;;;3.88;3.35;;;24.40;99.90;;;;;;5084342;28;20219;-52
2022/06/08 07:54:30;;;;;;;4.40;3.00;;;24.50;99.90;;;;;;5109419;28;20228;-52
2022/06/08 07:57:01;;;;;;;2.83;2.63;;;24.20;99.90;;;;;;5109764;28;20211;-52
2022/06/08 07:59:31;;;;;;;3.38;3.08;;;24.40;99.90;;;;;;5109762;28;20540;-52
2022/06/08 08:02:00;;;;;;;3.45;2.80;;;24.70;99.90;;;;;;5109489;28;20260;-51
2022/06/08 08:04:28;;;;;;;2.80;2.47;;;24.90;99.90;;;;;;5109810;28;20238;-52
2022/06/08 08:06:57;;;;;;;3.35;2.78;;;24.80;99.90;;;;;;5109612;28;20556;-52
2022/06/08 08:09:25;;;;;;;2.78;2.53;;;24.50;99.90;;;;;;5098922;28;20293;-52
2022/06/08 08:11:55;;;;;;;5.35;3.05;;;24.20;99.90;;;;;;5088902;28;20746;-52
2022/06/08 08:14:25;;;;;;;2.92;2.67;;;24.40;99.90;;;;;;5088840;28;20660;-52
2022/06/08 08:16:54;;;;;;;2.90;2.70;;;24.30;99.90;;;;;;5088610;28;20243;-51
2022/06/08 08:19:24;;;;;;;2.40;2.20;;;23.80;99.90;;;;;;5089505;28;20200;-52
2022/06/08 08:21:53;;;;;;;2.67;2.40;;;23.30;99.90;;;;;;5089056;28;20208;-52
2022/06/08 08:24:22;;;;;;;3.72;2.13;;;23.20;99.90;;;;;;5088807;28;20727;-52
2022/06/08 08:26:51;;;;;;;2.72;2.30;;;23.00;99.90;;;;;;5088784;28;20216;-51
2022/06/08 08:29:19;;;;;;;3.90;2.42;;;22.80;99.90;;;;;;5088972;28;20248;-52
2022/06/08 08:31:49;;;;;;;3.03;2.17;;;22.80;99.90;;;;;;5088866;28;20588;-52
2022/06/08 08:34:18;;;;;;;2.78;2.50;;;22.60;99.90;;;;;;5087654;28;20212;-51
2022/06/08 08:36:46;;;;;;;3.30;2.70;;;22.40;99.90;;;;;;5092439;28;20220;-51
2022/06/08 08:39:15;;;;;;;2.60;2.40;;;22.50;99.90;;;;;;5092501;28;20273;-52
2022/06/08 08:44:40;;;;;;;3.70;2.50;;;22.40;99.90;;;;;;5092009;28;20227;-52
2022/06/08 08:47:23;;;;;;;3.97;2.42;;;22.10;99.90;;;;;;5102012;28;20208;-51
2022/06/08 08:49:55;;;;;;;3.33;2.30;;;21.90;99.90;;;;;;5111869;28;20310;-51
2022/06/08 08:52:35;;;;;;;5.28;2.28;;;21.80;99.90;;;;;;5113156;28;20215;-51
2022/06/08 08:55:16;;;;;;;2.90;2.40;;;21.80;99.90;;;;;;5112239;28;20358;-52
2022/06/08 08:57:55;;;;;;;3.15;2.50;;;21.70;99.90;;;;;;5113002;28;20535;-52
2022/06/08 09:00:31;;;;;;;2.85;2.60;;;21.70;99.90;;;;;;5112522;28;20199;-51
2022/06/08 09:05:49;;;;;;;4.38;2.70;;;21.90;99.90;;;;;;5102978;28;20224;-52
2022/06/08 09:08:20;;;;;;;2.88;2.42;;;21.90;99.90;;;;;;5092774;28;20204;-52
2022/06/08 09:10:51;;;;;;;2.67;2.33;;;22.40;99.90;;;;;;5083888;28;20228;-52
2022/06/08 09:13:23;;;;;;;4.55;2.80;;;22.80;99.90;;;;;;5091733;28;20228;-51
2022/06/08 09:15:54;;;;;;;5.50;2.47;;;23.00;99.90;;;;;;5091807;28;20231;-51
2022/06/08 09:18:34;;;;;;;2.38;2.17;;;23.30;99.90;;;;;;5091113;28;20257;-52
2022/06/08 09:21:24;;;;;;;3.25;2.95;;;23.40;99.90;;;;;;5091347;28;20200;-51
2022/06/08 09:23:54;;;;;;;5.65;2.67;;;23.80;99.90;;;;;;5081560;28;20616;-52
2022/06/08 09:26:34;;;;;;;4.53;3.05;;;24.00;99.90;;;;;;5091273;28;20266;-52
2022/06/08 09:29:12;;;;;;;3.90;3.20;;;23.60;99.90;;;;;;5091619;28;20281;-52
2022/06/08 09:31:42;;;;;;;3.70;3.10;;;23.40;99.90;;;;;;5091332;28;20235;-52
2022/06/08 09:34:21;;;;;;;5.72;3.90;;;23.50;99.90;;;;;;5091170;28;20205;-51
2022/06/08 09:37:06;;;;;;;3.72;2.92;;;23.60;99.90;;;;;;5091376;28;20692;-51
2022/06/08 09:39:35;;;;;;;2.58;1.80;;;23.70;99.90;;;;;;5091650;28;20246;-51
2022/06/08 09:42:23;;;;;;;3.95;2.42;;;23.30;99.90;;;;;;5091283;28;20230;-51
2022/06/08 09:45:01;;;;;;;6.03;2.85;;;23.30;99.90;;;;;;5091270;28;20232;-51
2022/06/08 09:53:21;;;;;;;2.97;2.67;;;23.70;99.90;;;;;;5089811;28;20215;-52
2022/06/08 09:56:01;;;;;;;4.00;3.05;;;23.60;99.90;;;;;;5094099;28;20632;-52
2022/06/08 09:58:53;;;;;;;3.58;3.28;;;23.70;99.90;;;;;;5095146;28;20231;-51
2022/06/08 10:01:30;;;;;;;5.70;3.60;;;23.80;99.90;;;;;;5089966;28;20192;-51
2022/06/08 10:04:23;;;;;;;3.45;3.15;;;23.80;99.90;;;;;;5090395;28;20208;-51
2022/06/08 10:07:16;;;;;;;3.30;2.60;;;23.90;99.90;;;;;;5083080;28;20555;-53
2022/06/08 10:10:05;;;;;;;3.65;2.85;;;24.10;99.90;;;;;;5088205;28;20273;-51
2022/06/08 10:12:44;;;;;;;3.75;2.47;;;24.20;99.90;;;;;;5061598;28;20205;-51
2022/06/08 10:15:23;;;;;;;3.10;2.50;;;24.20;99.90;;;;;;5090609;28;20247;-51
2022/06/08 10:17:57;;;;;;;3.50;2.30;;;24.50;99.90;;;;;;5090398;28;20676;-51
2022/06/08 10:20:32;;;;;;;3.40;2.22;;;24.60;99.90;;;;;;5086209;28;20237;-52
2022/06/08 10:23:12;;;;;;;2.40;2.20;;;24.50;99.90;;;;;;5090570;28;20269;-52
2022/06/08 10:25:44;;;;;;;2.15;1.95;;;24.50;99.90;;;;;;5090276;28;20585;-51
2022/06/08 10:28:18;;;;;;;3.50;2.30;;;24.30;99.90;;;;;;5084088;28;20216;-51
2022/06/08 10:30:55;;;;;;;2.70;1.90;;;24.20;99.90;;;;;;5090214;28;20244;-51
2022/06/08 10:33:37;;;;;;;4.07;1.90;;;24.10;99.90;;;;;;5090011;28;20271;-51
2022/06/08 10:36:10;;;;;;;1.90;1.70;;;24.10;99.90;;;;;;5089396;28;20262;-51
2022/06/08 10:38:43;;;;;;;2.08;1.70;;;24.30;99.90;;;;;;5089600;28;20235;-51
2022/06/08 10:44:47;;;;;;;2.22;1.67;;;24.00;99.90;;;;;;5090295;28;20673;-51
2022/06/08 10:47:29;;;;;;;3.10;2.00;;;23.90;99.90;;;;;;5089676;28;20204;-52
2022/06/08 10:50:16;;;;;;;5.65;2.45;;;24.00;99.90;;;;;;5089472;28;20713;-51
2022/06/08 10:52:47;;;;;;;6.47;1.80;;;23.90;99.90;;;;;;5089049;28;20204;-52
2022/06/08 10:55:39;;;;;;;3.13;2.10;;;23.90;99.90;;;;;;5090061;28;20286;-51
2022/06/08 10:58:17;;;;;;;3.72;2.10;;;23.80;99.90;;;;;;5077345;28;20204;-52
2022/06/08 11:01:07;;;;;;;3.38;1.98;;;23.60;99.90;;;;;;5089381;28;20288;-51
2022/06/08 11:03:51;;;;;;;3.17;2.17;;;23.60;99.90;;;;;;5088997;28;20804;-51
2022/06/08 11:06:58;;;;;;;3.20;2.10;;;23.60;99.90;;;;;;5089764;28;20234;-51
2022/06/08 11:09:50;;;;;;;2.35;2.00;;;23.60;99.90;;;;;;5089146;28;20245;-52
2022/06/08 11:12:30;;;;;;;4.47;2.30;;;23.40;99.90;;;;;;5078687;28;20208;-52
2022/06/08 11:15:01;;;;;;;4.18;2.20;;;23.40;99.90;;;;;;5089089;28;20719;-51
2022/06/08 11:17:33;;;;;;;3.20;2.25;;;23.20;99.90;;;;;;5089695;28;20274;-51
2022/06/08 11:20:13;;;;;;;3.83;2.28;;;23.10;99.90;;;;;;5089137;28;20767;-52
2022/06/08 11:22:45;;;;;;;2.58;1.98;;;23.10;99.90;;;;;;5084294;28;20204;-52
2022/06/08 11:25:18;;;;;;;3.25;2.22;;;23.10;99.90;;;;;;5087471;28;20224;-52
2022/06/08 11:28:26;;;;;;;4.13;2.15;;;23.10;99.90;;;;;;5088881;28;20262;-51
2022/06/08 11:30:57;;;;;;;3.97;2.13;;;23.20;99.90;;;;;;5079489;28;20603;-52
2022/06/08 11:34:00;;;;;;;3.00;2.00;;;23.00;99.90;;;;;;5088819;28;20255;-52
2022/06/08 11:37:04;;;;;;;3.20;1.80;;;22.90;99.90;;;;;;5088971;28;20292;-52
2022/06/08 11:39:38;;;;;;;3.60;1.77;;;22.80;99.90;;;;;;5086454;28;20257;-52
2022/06/08 11:42:24;;;;;;;4.65;1.90;;;22.60;99.90;;;;;;5088902;28;20235;-52
2022/06/08 11:44:57;;;;;;;5.35;1.88;;;22.50;99.90;;;;;;5088704;28;20608;-52
2022/06/08 11:47:30;;;;;;;2.72;2.10;;;22.60;99.90;;;;;;5087110;28;20200;-51
2022/06/08 11:50:01;;;;;;;4.53;1.98;;;22.70;99.90;;;;;;5079967;28;20208;-52
2022/06/08 11:52:36;;;;;;;3.17;1.85;;;22.80;99.90;;;;;;5086364;28;20228;-52
2022/06/08 11:55:11;;;;;;;4.88;2.28;;;22.70;99.90;;;;;;5089152;28;20658;-52
2022/06/08 11:57:41;;;;;;;6.18;2.30;;;22.80;99.90;;;;;;5088947;28;20260;-52
2022/06/08 12:00:21;;;;;;;4.90;2.20;;;23.00;99.90;;;;;;5089352;28;20238;-51
2022/06/08 12:02:55;;;;;;;5.57;2.63;;;22.90;99.90;;;;;;5088643;28;20266;-51
2022/06/08 12:05:26;;;;;;;2.85;2.20;;;22.90;99.90;;;;;;5089185;28;20640;-51
2022/06/08 12:08:01;;;;;;;3.75;2.35;;;23.00;99.90;;;;;;5087734;28;20231;-52
2022/06/08 12:10:33;;;;;;;4.05;2.40;;;23.10;99.90;;;;;;5081988;28;20253;-52
2022/06/08 12:13:01;;;;;;;3.03;2.10;;;23.30;99.90;;;;;;5092319;28;20248;-52
2022/06/08 12:15:43;;;;;;;4.75;2.20;;;23.40;99.90;;;;;;5092803;28;20220;-52
2022/06/08 12:18:25;;;;;;;3.05;1.92;;;23.40;99.90;;;;;;5092084;28;20212;-52
2022/06/08 12:21:10;;;;;;;2.97;1.90;;;23.90;99.90;;;;;;5091488;28;20257;-52
2022/06/08 12:23:41;;;;;;;3.42;1.90;;;24.10;99.90;;;;;;5097609;28;20253;-52
2022/06/08 12:26:22;;;;;;;4.38;1.83;;;24.10;99.90;;;;;;5108826;28;20251;-52
2022/06/08 12:28:59;;;;;;;3.20;2.03;;;24.20;99.90;;;;;;5105798;28;20245;-53
2022/06/08 12:31:32;;;;;;;3.75;1.83;;;24.30;99.90;;;;;;5112010;28;20641;-52
2022/06/08 12:34:33;;;;;;;4.45;2.00;;;24.30;99.90;;;;;;5112477;28;20214;-52
2022/06/08 12:37:37;;;;;;;5.13;2.13;;;24.10;99.90;;;;;;5112053;28;21044;-53
2022/06/08 12:40:31;;;;;;;4.45;1.90;;;23.80;99.90;;;;;;5107964;28;20203;-53
2022/06/08 12:43:26;;;;;;;5.35;2.08;;;23.50;99.90;;;;;;5112128;28;20500;-52
2022/06/08 12:46:26;;;;;;;3.97;2.00;;;23.50;99.90;;;;;;5092437;28;20223;-52
2022/06/08 12:49:02;;;;;;;4.40;2.10;;;23.30;99.90;;;;;;5054761;28;20212;-52
2022/06/08 12:51:43;;;;;;;4.10;2.08;;;23.30;99.90;;;;;;5110628;28;20595;-52
2022/06/08 12:54:20;;;;;;;5.95;2.17;;;23.20;99.90;;;;;;5112302;28;20207;-52
2022/06/08 12:56:51;;;;;;;3.58;1.85;;;23.00;99.90;;;;;;5112506;28;20256;-52
2022/06/08 12:59:20;;;;;;;5.80;1.92;;;22.90;99.90;;;;;;5112178;28;20553;-52
2022/06/08 13:02:00;;;;;;;5.60;1.98;;;22.80;99.90;;;;;;5112578;28;20276;-51
2022/06/08 13:04:29;;;;;;;4.05;2.10;;;22.70;99.90;;;;;;5105045;28;20313;-52
2022/06/08 13:06:58;;;;;;;6.45;2.15;;;22.60;99.90;;;;;;5097972;28;20665;-53
2022/06/08 13:09:26;;;;;;;6.50;2.40;;;22.50;99.90;;;;;;5112113;28;20256;-53
2022/06/08 13:11:57;;;;;;;4.57;2.50;;;22.40;99.90;;;;;;5077863;28;20279;-52
2022/06/08 13:14:26;;;;;;;6.00;2.80;;;22.30;99.90;;;;;;5091968;28;20208;-51
2022/06/08 13:16:54;;;;;;;10.57;3.30;;;22.20;99.90;;;;;;5091342;28;20908;-52
2022/06/08 13:19:22;;;;;;;6.53;2.67;;;22.00;99.90;;;;;;5091319;28;20208;-52
2022/06/08 13:21:52;;;;;;;4.43;2.90;;;21.90;99.90;;;;;;5091051;28;20300;-52
2022/06/08 13:24:20;;;;;;;4.78;2.47;;;21.90;99.90;;;;;;5091659;28;20421;-52
2022/06/08 13:26:49;;;;;;;7.18;2.47;;;21.90;99.90;;;;;;5092166;28;20265;-51
2022/06/08 13:29:18;;;;;;;4.88;2.47;;;21.80;99.90;;;;;;5091635;28;20212;-52
2022/06/08 13:31:46;;;;;;;3.58;2.33;;;21.70;99.90;;;;;;5091202;28;20254;-52
2022/06/08 13:34:15;;;;;;;6.40;2.97;;;21.70;99.90;;;;;;5090234;28;20208;-52
2022/06/08 13:36:49;;;;;;;5.32;2.90;;;21.70;99.90;;;;;;5091691;28;20247;-51